Flight Track Log - Related Links

Times and Time Zones

All times are in EDT time to prevent confusion due to time zone crossing. See the N960DL flight status page for this flight to view local times or setup timezone preferences in your user account.

Time Position Orientation Groundspeed Altitude Reporting Facility
EDT Latitude Longitude Course Direction KTS MPH feet Rate Location/Type
Sun 10:28:16 AM 30.5069 -81.6678 337° Northwest 177 204 800  Level Jacksonville Center
Sun 10:28:47 AM 30.5150 -81.6386 72° East 183 211 1,300 1,247 Climbing Jacksonville Center
Sun 10:29:33 AM 30.5544 -81.6117 30° Northeast 258 297 2,400 2,208 Climbing Jacksonville Center
Sun 10:30:33 AM 30.6239 -81.6494 335° Northwest 248 285 5,200 2,850 Climbing Jacksonville Center
Sun 10:31:00 AM 30.8839 -81.8919 337° Northwest  Level FlightAware Approximate
Sun 10:31:33 AM 30.6931 -81.6944 331° Northwest 262 302 8,100  Level Jacksonville Center
Sun 10:32:00 AM 30.9853 -81.9426 337° Northwest  Level FlightAware Approximate
Sun 10:32:33 AM 30.7686 -81.7394 333° Northwest 282 325 10,400  Level Jacksonville Center
Sun 10:33:00 AM 31.0833 -81.9999 337° Northwest  Level FlightAware Approximate
Sun 10:33:33 AM 30.8525 -81.7892 333° Northwest 307 353 11,700  Level Jacksonville Center
Sun 10:34:33 AM 30.9492 -81.8486 332° Northwest 352 405 13,500 2,250 Climbing Jacksonville Center
Sun 10:35:33 AM 31.0519 -81.9081 334° Northwest 394 453 16,200 2,700 Climbing Jacksonville Center
Sun 10:36:33 AM 31.1525 -81.9700 332° Northwest 414 476 18,900 2,100 Climbing Jacksonville Center
Sun 10:37:33 AM 31.2511 -82.0322 332° Northwest 408 470 20,400 1,500 Climbing Jacksonville Center
Sun 10:38:33 AM 31.3539 -82.0947 333° Northwest 408 470 21,900 1,150 Climbing Jacksonville Center
Sun 10:39:33 AM 31.4628 -82.1594 333° Northwest 428 493 22,700 900 Climbing Jacksonville Center
Sun 10:40:33 AM 31.5781 -82.2292 333° Northwest 454 522 23,700 1,150 Climbing Jacksonville Center
Sun 10:41:33 AM 31.6933 -82.2967 334° Northwest 460 529 25,000 1,186 Climbing Jacksonville Center
Sun 10:43:20 AM 31.9031 -82.4219 333° Northwest 465 535 27,000 719 Climbing Atlanta Center
Sun 10:44:20 AM 32.0083 -82.5031 327° Northwest 458 527 27,000  Level Atlanta Center
Sun 10:45:20 AM 32.1056 -82.6069 318° Northwest 458 527 27,000  Level Atlanta Center
Sun 10:46:20 AM 32.2028 -82.7083 319° Northwest 463 533 27,000  Level Atlanta Center
Sun 10:47:20 AM 32.2956 -82.8078 318° Northwest 457 526 27,000  Level Atlanta Center
Sun 10:48:20 AM 32.3906 -82.9097 318° Northwest 452 520 27,000  Level Atlanta Center
Sun 10:49:20 AM 32.4833 -83.0119 317° Northwest 452 520 27,000 -400 Level Atlanta Center
Sun 10:50:20 AM 32.5781 -83.1094 319° Northwest 452 520 26,200 -1,600 Descending Atlanta Center
Sun 10:51:20 AM 32.6664 -83.2072 317° Northwest 447 514 23,800 -2,550 Descending Atlanta Center
Sun 10:52:20 AM 32.7547 -83.3053 317° Northwest 441 507 21,100 -2,600 Descending Atlanta Center
Sun 10:53:20 AM 32.8408 -83.3961 318° Northwest 430 495 18,600 -2,150 Descending Atlanta Center
Sun 10:54:20 AM 32.9267 -83.4919 317° Northwest 425 489 16,800 -2,000 Descending Atlanta Center
Sun 10:55:20 AM 33.0064 -83.5781 318° Northwest 407 468 14,600 -2,150 Descending Atlanta Center
Sun 10:56:20 AM 33.0819 -83.6644 316° Northwest 393 452 12,500 -1,311 Descending Atlanta Center
Sun 10:57:19 AM 33.1500 -83.7333 320° Northwest 353 406 12,000 -603 Descending Atlanta TRACON
Sun 10:59:19 AM 33.2667 -83.8833 313° West 311 358 10,700 -928 Descending Atlanta TRACON
Sun 11:00:20 AM 33.3267 -83.9767 308° West 312 359 9,200 -1,289 Descending Atlanta Center
Sun 11:01:20 AM 33.3956 -84.0239 330° Northwest 295 339 8,100 -1,650 Descending Atlanta Center
Sun 11:02:20 AM 33.4750 -84.0114 North 272 313 5,900 -2,000 Descending Atlanta Center
Sun 11:03:20 AM 33.5439 -84.0561 332° Northwest 272 313 4,100 -1,450 Descending Atlanta Center
Sun 11:04:20 AM 33.5981 -84.1161 317° Northwest 272 313 3,000 -550 Descending Atlanta Center
Sun 11:05:20 AM 33.6208 -84.1761 295° West 247 284 3,000  Level Atlanta Center

Login

Don't have an account? Register now (free) for customized features, flight alerts, and more!